sensor_id;sensor_type;location;lat;lon;timestamp;P1;durP1;ratioP1;P2;durP2;ratioP2
3653;SDS011;70277;54.302;10.064;2023-11-19T00:00:06;10.45;;;6.43;;
3653;SDS011;70277;54.302;10.064;2023-11-19T00:02:38;13.00;;;7.50;;
3653;SDS011;70277;54.302;10.064;2023-11-19T00:05:05;11.27;;;6.65;;
3653;SDS011;70277;54.302;10.064;2023-11-19T00:07:38;11.55;;;6.90;;
3653;SDS011;70277;54.302;10.064;2023-11-19T00:10:08;11.05;;;7.07;;
3653;SDS011;70277;54.302;10.064;2023-11-19T00:12:41;14.50;;;7.22;;
3653;SDS011;70277;54.302;10.064;2023-11-19T00:15:08;13.52;;;7.00;;
3653;SDS011;70277;54.302;10.064;2023-11-19T00:17:38;12.57;;;6.50;;
3653;SDS011;70277;54.302;10.064;2023-11-19T00:20:12;11.38;;;7.07;;
3653;SDS011;70277;54.302;10.064;2023-11-19T00:22:40;12.52;;;6.28;;
3653;SDS011;70277;54.302;10.064;2023-11-19T00:25:10;14.45;;;6.93;;
3653;SDS011;70277;54.302;10.064;2023-11-19T00:27:37;11.75;;;6.68;;
3653;SDS011;70277;54.302;10.064;2023-11-19T00:30:04;12.52;;;6.55;;
3653;SDS011;70277;54.302;10.064;2023-11-19T00:32:32;11.48;;;6.45;;
3653;SDS011;70277;54.302;10.064;2023-11-19T00:34:59;10.35;;;6.80;;
3653;SDS011;70277;54.302;10.064;2023-11-19T00:37:26;9.05;;;5.97;;
3653;SDS011;70277;54.302;10.064;2023-11-19T00:39:53;10.10;;;6.40;;
3653;SDS011;70277;54.302;10.064;2023-11-19T00:42:19;11.65;;;6.80;;
3653;SDS011;70277;54.302;10.064;2023-11-19T00:44:46;11.75;;;6.53;;
3653;SDS011;70277;54.302;10.064;2023-11-19T00:47:17;11.77;;;7.20;;
3653;SDS011;70277;54.302;10.064;2023-11-19T00:49:49;10.80;;;7.17;;
3653;SDS011;70277;54.302;10.064;2023-11-19T00:52:16;9.93;;;6.53;;
3653;SDS011;70277;54.302;10.064;2023-11-19T00:54:43;10.20;;;6.50;;
3653;SDS011;70277;54.302;10.064;2023-11-19T00:57:10;11.63;;;6.95;;
3653;SDS011;70277;54.302;10.064;2023-11-19T00:59:36;9.73;;;6.15;;
3653;SDS011;70277;54.302;10.064;2023-11-19T01:02:03;9.20;;;6.00;;
3653;SDS011;70277;54.302;10.064;2023-11-19T01:04:35;9.50;;;6.20;;
3653;SDS011;70277;54.302;10.064;2023-11-19T01:07:02;11.90;;;6.35;;
3653;SDS011;70277;54.302;10.064;2023-11-19T01:12:01;8.50;;;5.50;;
3653;SDS011;70277;54.302;10.064;2023-11-19T01:14:29;7.43;;;5.55;;
3653;SDS011;70277;54.302;10.064;2023-11-19T01:16:56;7.95;;;5.25;;
3653;SDS011;70277;54.302;10.064;2023-11-19T01:19:24;9.20;;;5.82;;
3653;SDS011;70277;54.302;10.064;2023-11-19T01:21:51;6.05;;;4.75;;
3653;SDS011;70277;54.302;10.064;2023-11-19T01:24:17;8.02;;;5.93;;
3653;SDS011;70277;54.302;10.064;2023-11-19T01:26:44;6.32;;;4.93;;
3653;SDS011;70277;54.302;10.064;2023-11-19T01:29:13;7.60;;;5.18;;
3653;SDS011;70277;54.302;10.064;2023-11-19T01:31:41;6.82;;;4.60;;
3653;SDS011;70277;54.302;10.064;2023-11-19T01:34:08;7.57;;;4.75;;
3653;SDS011;70277;54.302;10.064;2023-11-19T01:36:35;6.28;;;4.57;;
3653;SDS011;70277;54.302;10.064;2023-11-19T01:39:01;7.72;;;4.47;;
3653;SDS011;70277;54.302;10.064;2023-11-19T01:41:36;6.05;;;4.35;;
3653;SDS011;70277;54.302;10.064;2023-11-19T01:44:03;6.88;;;4.82;;
3653;SDS011;70277;54.302;10.064;2023-11-19T01:46:30;8.35;;;4.47;;
3653;SDS011;70277;54.302;10.064;2023-11-19T01:48:59;4.57;;;4.00;;
3653;SDS011;70277;54.302;10.064;2023-11-19T01:51:27;5.45;;;4.13;;
3653;SDS011;70277;54.302;10.064;2023-11-19T01:53:54;4.93;;;3.85;;
3653;SDS011;70277;54.302;10.064;2023-11-19T01:56:23;6.18;;;4.22;;
3653;SDS011;70277;54.302;10.064;2023-11-19T01:58:52;5.40;;;4.10;;
3653;SDS011;70277;54.302;10.064;2023-11-19T02:01:20;5.00;;;3.63;;
3653;SDS011;70277;54.302;10.064;2023-11-19T02:03:48;4.97;;;3.95;;
3653;SDS011;70277;54.302;10.064;2023-11-19T02:06:15;4.35;;;3.58;;
3653;SDS011;70277;54.302;10.064;2023-11-19T02:08:41;4.85;;;3.47;;
3653;SDS011;70277;54.302;10.064;2023-11-19T02:11:09;3.65;;;3.28;;
3653;SDS011;70277;54.302;10.064;2023-11-19T02:13:38;3.53;;;3.05;;
3653;SDS011;70277;54.302;10.064;2023-11-19T02:16:04;7.20;;;3.78;;
3653;SDS011;70277;54.302;10.064;2023-11-19T02:18:33;3.60;;;2.90;;
3653;SDS011;70277;54.302;10.064;2023-11-19T02:20:59;6.90;;;3.20;;
3653;SDS011;70277;54.302;10.064;2023-11-19T02:23:26;7.78;;;3.17;;
3653;SDS011;70277;54.302;10.064;2023-11-19T02:28:41;3.92;;;2.78;;
3653;SDS011;70277;54.302;10.064;2023-11-19T02:31:09;2.92;;;2.47;;
3653;SDS011;70277;54.302;10.064;2023-11-19T02:33:37;4.13;;;2.50;;
3653;SDS011;70277;54.302;10.064;2023-11-19T02:36:07;7.03;;;2.60;;
3653;SDS011;70277;54.302;10.064;2023-11-19T02:38:35;3.80;;;2.95;;
3653;SDS011;70277;54.302;10.064;2023-11-19T02:41:05;2.90;;;2.60;;
3653;SDS011;70277;54.302;10.064;2023-11-19T02:43:33;2.88;;;2.55;;
3653;SDS011;70277;54.302;10.064;2023-11-19T02:46:03;2.28;;;2.08;;
3653;SDS011;70277;54.302;10.064;2023-11-19T02:48:36;3.05;;;2.20;;
3653;SDS011;70277;54.302;10.064;2023-11-19T02:51:02;2.60;;;2.40;;
3653;SDS011;70277;54.302;10.064;2023-11-19T02:53:30;3.92;;;2.30;;
3653;SDS011;70277;54.302;10.064;2023-11-19T02:55:58;2.05;;;1.95;;
3653;SDS011;70277;54.302;10.064;2023-11-19T02:58:32;1.95;;;1.65;;
3653;SDS011;70277;54.302;10.064;2023-11-19T03:00:59;2.22;;;1.88;;
3653;SDS011;70277;54.302;10.064;2023-11-19T03:03:35;2.30;;;1.77;;
3653;SDS011;70277;54.302;10.064;2023-11-19T03:06:07;1.65;;;1.55;;
3653;SDS011;70277;54.302;10.064;2023-11-19T03:08:35;2.10;;;1.88;;
3653;SDS011;70277;54.302;10.064;2023-11-19T03:11:02;2.10;;;1.58;;
3653;SDS011;70277;54.302;10.064;2023-11-19T03:13:28;1.75;;;1.65;;
3653;SDS011;70277;54.302;10.064;2023-11-19T03:15:55;1.40;;;1.30;;
3653;SDS011;70277;54.302;10.064;2023-11-19T03:18:21;3.83;;;1.23;;
3653;SDS011;70277;54.302;10.064;2023-11-19T03:20:48;1.42;;;1.33;;
3653;SDS011;70277;54.302;10.064;2023-11-19T03:23:15;1.88;;;1.30;;
3653;SDS011;70277;54.302;10.064;2023-11-19T03:25:42;1.45;;;1.35;;
3653;SDS011;70277;54.302;10.064;2023-11-19T03:28:09;1.00;;;0.85;;
3653;SDS011;70277;54.302;10.064;2023-11-19T03:30:37;1.40;;;1.30;;
3653;SDS011;70277;54.302;10.064;2023-11-19T03:33:04;2.40;;;0.93;;
3653;SDS011;70277;54.302;10.064;2023-11-19T03:35:31;2.35;;;1.05;;
3653;SDS011;70277;54.302;10.064;2023-11-19T03:37:59;1.27;;;0.90;;
3653;SDS011;70277;54.302;10.064;2023-11-19T03:40:27;0.80;;;0.80;;
3653;SDS011;70277;54.302;10.064;2023-11-19T03:42:57;1.92;;;1.13;;
3653;SDS011;70277;54.302;10.064;2023-11-19T03:45:25;1.17;;;1.17;;
3653;SDS011;70277;54.302;10.064;2023-11-19T03:47:51;0.75;;;0.75;;
3653;SDS011;70277;54.302;10.064;2023-11-19T03:50:18;1.63;;;1.00;;
3653;SDS011;70277;54.302;10.064;2023-11-19T03:52:46;0.65;;;0.65;;
3653;SDS011;70277;54.302;10.064;2023-11-19T03:55:13;0.80;;;0.80;;
3653;SDS011;70277;54.302;10.064;2023-11-19T03:57:40;0.93;;;0.70;;
3653;SDS011;70277;54.302;10.064;2023-11-19T04:00:06;0.95;;;0.70;;
3653;SDS011;70277;54.302;10.064;2023-11-19T04:02:37;1.60;;;0.80;;
3653;SDS011;70277;54.302;10.064;2023-11-19T04:05:03;0.60;;;0.60;;
3653;SDS011;70277;54.302;10.064;2023-11-19T04:07:31;1.15;;;1.13;;
3653;SDS011;70277;54.302;10.064;2023-11-19T04:09:58;0.85;;;0.85;;
3653;SDS011;70277;54.302;10.064;2023-11-19T04:12:25;0.90;;;0.90;;
3653;SDS011;70277;54.302;10.064;2023-11-19T04:14:52;0.85;;;0.85;;
3653;SDS011;70277;54.302;10.064;2023-11-19T04:17:21;0.85;;;0.85;;
3653;SDS011;70277;54.302;10.064;2023-11-19T04:19:49;1.55;;;0.82;;
3653;SDS011;70277;54.302;10.064;2023-11-19T04:22:15;1.00;;;1.00;;
3653;SDS011;70277;54.302;10.064;2023-11-19T04:24:42;0.80;;;0.80;;
3653;SDS011;70277;54.302;10.064;2023-11-19T04:27:10;1.05;;;1.05;;
3653;SDS011;70277;54.302;10.064;2023-11-19T04:29:36;0.80;;;0.80;;
3653;SDS011;70277;54.302;10.064;2023-11-19T04:32:03;0.93;;;0.93;;
3653;SDS011;70277;54.302;10.064;2023-11-19T04:34:31;4.70;;;1.00;;
3653;SDS011;70277;54.302;10.064;2023-11-19T04:36:58;0.68;;;0.68;;
3653;SDS011;70277;54.302;10.064;2023-11-19T04:39:38;1.13;;;1.10;;
3653;SDS011;70277;54.302;10.064;2023-11-19T04:42:05;0.88;;;0.88;;
3653;SDS011;70277;54.302;10.064;2023-11-19T04:44:33;0.90;;;0.90;;
3653;SDS011;70277;54.302;10.064;2023-11-19T04:46:59;0.80;;;0.80;;
3653;SDS011;70277;54.302;10.064;2023-11-19T04:49:26;0.80;;;0.80;;
3653;SDS011;70277;54.302;10.064;2023-11-19T04:51:54;0.95;;;0.95;;
3653;SDS011;70277;54.302;10.064;2023-11-19T04:54:20;2.78;;;0.90;;
3653;SDS011;70277;54.302;10.064;2023-11-19T04:56:46;1.10;;;0.98;;
3653;SDS011;70277;54.302;10.064;2023-11-19T04:59:13;1.00;;;1.00;;
3653;SDS011;70277;54.302;10.064;2023-11-19T05:01:40;1.02;;;1.02;;
3653;SDS011;70277;54.302;10.064;2023-11-19T05:04:07;0.80;;;0.80;;
3653;SDS011;70277;54.302;10.064;2023-11-19T05:06:34;1.08;;;1.08;;
3653;SDS011;70277;54.302;10.064;2023-11-19T05:09:01;0.90;;;0.90;;
3653;SDS011;70277;54.302;10.064;2023-11-19T05:11:32;1.15;;;1.00;;
3653;SDS011;70277;54.302;10.064;2023-11-19T05:13:59;1.00;;;1.00;;
3653;SDS011;70277;54.302;10.064;2023-11-19T05:16:25;0.90;;;0.90;;
3653;SDS011;70277;54.302;10.064;2023-11-19T05:18:52;1.27;;;1.27;;
3653;SDS011;70277;54.302;10.064;2023-11-19T05:21:19;2.53;;;1.35;;
3653;SDS011;70277;54.302;10.064;2023-11-19T05:23:45;1.40;;;1.30;;
3653;SDS011;70277;54.302;10.064;2023-11-19T05:26:19;1.40;;;1.30;;
3653;SDS011;70277;54.302;10.064;2023-11-19T05:28:47;2.03;;;1.48;;
3653;SDS011;70277;54.302;10.064;2023-11-19T05:31:15;1.30;;;1.30;;
3653;SDS011;70277;54.302;10.064;2023-11-19T05:33:42;1.77;;;1.58;;
3653;SDS011;70277;54.302;10.064;2023-11-19T05:36:10;3.55;;;1.40;;
3653;SDS011;70277;54.302;10.064;2023-11-19T05:38:38;2.50;;;2.30;;
3653;SDS011;70277;54.302;10.064;2023-11-19T05:41:05;3.78;;;2.08;;
3653;SDS011;70277;54.302;10.064;2023-11-19T05:43:32;2.10;;;1.73;;
3653;SDS011;70277;54.302;10.064;2023-11-19T05:45:59;2.50;;;2.08;;
3653;SDS011;70277;54.302;10.064;2023-11-19T05:48:25;4.75;;;2.30;;
3653;SDS011;70277;54.302;10.064;2023-11-19T05:50:53;2.78;;;2.35;;
3653;SDS011;70277;54.302;10.064;2023-11-19T05:53:19;3.17;;;2.83;;
3653;SDS011;70277;54.302;10.064;2023-11-19T05:55:46;4.35;;;2.78;;
3653;SDS011;70277;54.302;10.064;2023-11-19T05:58:24;3.60;;;2.70;;
3653;SDS011;70277;54.302;10.064;2023-11-19T06:00:58;7.10;;;2.90;;
3653;SDS011;70277;54.302;10.064;2023-11-19T06:03:27;3.58;;;2.53;;
3653;SDS011;70277;54.302;10.064;2023-11-19T06:05:54;10.00;;;3.28;;
3653;SDS011;70277;54.302;10.064;2023-11-19T06:08:20;3.10;;;2.80;;
3653;SDS011;70277;54.302;10.064;2023-11-19T06:10:47;3.88;;;3.00;;
3653;SDS011;70277;54.302;10.064;2023-11-19T06:13:17;5.82;;;2.60;;
3653;SDS011;70277;54.302;10.064;2023-11-19T06:15:44;6.65;;;3.45;;
3653;SDS011;70277;54.302;10.064;2023-11-19T06:18:10;3.40;;;2.95;;
3653;SDS011;70277;54.302;10.064;2023-11-19T06:20:40;7.07;;;3.60;;
3653;SDS011;70277;54.302;10.064;2023-11-19T06:23:09;6.15;;;4.13;;
3653;SDS011;70277;54.302;10.064;2023-11-19T06:25:35;5.90;;;3.72;;
3653;SDS011;70277;54.302;10.064;2023-11-19T06:28:02;5.10;;;3.40;;
3653;SDS011;70277;54.302;10.064;2023-11-19T06:30:29;8.50;;;3.92;;
3653;SDS011;70277;54.302;10.064;2023-11-19T06:32:58;7.85;;;4.03;;
3653;SDS011;70277;54.302;10.064;2023-11-19T06:35:25;11.85;;;4.65;;
3653;SDS011;70277;54.302;10.064;2023-11-19T06:37:52;11.75;;;4.90;;
3653;SDS011;70277;54.302;10.064;2023-11-19T06:40:19;10.02;;;4.88;;
3653;SDS011;70277;54.302;10.064;2023-11-19T06:42:46;12.60;;;6.65;;
3653;SDS011;70277;54.302;10.064;2023-11-19T06:45:12;8.60;;;5.75;;
3653;SDS011;70277;54.302;10.064;2023-11-19T06:47:38;13.38;;;5.93;;
3653;SDS011;70277;54.302;10.064;2023-11-19T06:50:06;11.35;;;6.65;;
3653;SDS011;70277;54.302;10.064;2023-11-19T06:52:33;25.15;;;6.63;;
3653;SDS011;70277;54.302;10.064;2023-11-19T06:54:59;15.93;;;7.03;;
3653;SDS011;70277;54.302;10.064;2023-11-19T06:57:29;13.60;;;6.77;;
3653;SDS011;70277;54.302;10.064;2023-11-19T06:59:58;14.32;;;6.72;;
3653;SDS011;70277;54.302;10.064;2023-11-19T07:02:25;16.08;;;6.65;;
3653;SDS011;70277;54.302;10.064;2023-11-19T07:04:53;23.60;;;7.70;;
3653;SDS011;70277;54.302;10.064;2023-11-19T07:07:20;13.98;;;7.38;;
3653;SDS011;70277;54.302;10.064;2023-11-19T07:09:47;14.20;;;8.05;;
3653;SDS011;70277;54.302;10.064;2023-11-19T07:12:14;15.32;;;8.32;;
3653;SDS011;70277;54.302;10.064;2023-11-19T07:14:40;20.92;;;8.98;;
3653;SDS011;70277;54.302;10.064;2023-11-19T07:17:08;25.27;;;8.85;;
3653;SDS011;70277;54.302;10.064;2023-11-19T07:19:37;25.70;;;9.57;;
3653;SDS011;70277;54.302;10.064;2023-11-19T07:22:05;31.85;;;10.18;;
3653;SDS011;70277;54.302;10.064;2023-11-19T07:24:33;24.60;;;10.00;;
3653;SDS011;70277;54.302;10.064;2023-11-19T07:26:59;26.02;;;10.13;;
3653;SDS011;70277;54.302;10.064;2023-11-19T07:29:27;22.05;;;9.88;;
3653;SDS011;70277;54.302;10.064;2023-11-19T07:31:55;20.58;;;9.05;;
3653;SDS011;70277;54.302;10.064;2023-11-19T07:34:22;29.20;;;10.93;;
3653;SDS011;70277;54.302;10.064;2023-11-19T07:36:48;24.55;;;10.50;;
3653;SDS011;70277;54.302;10.064;2023-11-19T07:39:15;26.67;;;10.63;;
3653;SDS011;70277;54.302;10.064;2023-11-19T07:41:41;27.48;;;10.85;;
3653;SDS011;70277;54.302;10.064;2023-11-19T07:44:08;26.25;;;11.25;;
3653;SDS011;70277;54.302;10.064;2023-11-19T07:46:34;28.02;;;10.40;;
3653;SDS011;70277;54.302;10.064;2023-11-19T07:49:00;26.08;;;10.45;;
3653;SDS011;70277;54.302;10.064;2023-11-19T07:51:29;28.83;;;10.55;;
3653;SDS011;70277;54.302;10.064;2023-11-19T07:53:55;26.20;;;9.57;;
3653;SDS011;70277;54.302;10.064;2023-11-19T07:56:22;25.02;;;9.48;;
3653;SDS011;70277;54.302;10.064;2023-11-19T07:58:48;24.58;;;8.98;;
3653;SDS011;70277;54.302;10.064;2023-11-19T08:01:15;34.97;;;9.40;;
3653;SDS011;70277;54.302;10.064;2023-11-19T08:03:42;30.67;;;8.23;;
3653;SDS011;70277;54.302;10.064;2023-11-19T08:06:24;28.83;;;6.22;;
3653;SDS011;70277;54.302;10.064;2023-11-19T08:08:51;26.20;;;5.90;;
3653;SDS011;70277;54.302;10.064;2023-11-19T08:11:18;38.92;;;5.82;;
3653;SDS011;70277;54.302;10.064;2023-11-19T08:13:46;31.45;;;4.93;;
3653;SDS011;70277;54.302;10.064;2023-11-19T08:16:13;38.83;;;5.05;;
3653;SDS011;70277;54.302;10.064;2023-11-19T08:18:44;29.98;;;4.35;;
3653;SDS011;70277;54.302;10.064;2023-11-19T08:21:10;34.90;;;4.20;;
3653;SDS011;70277;54.302;10.064;2023-11-19T08:23:37;36.78;;;4.70;;
3653;SDS011;70277;54.302;10.064;2023-11-19T08:26:04;32.80;;;4.15;;
3653;SDS011;70277;54.302;10.064;2023-11-19T08:28:31;28.23;;;3.78;;
3653;SDS011;70277;54.302;10.064;2023-11-19T08:31:00;28.17;;;4.78;;
3653;SDS011;70277;54.302;10.064;2023-11-19T08:33:27;36.20;;;5.07;;
3653;SDS011;70277;54.302;10.064;2023-11-19T08:35:54;26.88;;;5.75;;
3653;SDS011;70277;54.302;10.064;2023-11-19T08:38:20;39.53;;;5.35;;
3653;SDS011;70277;54.302;10.064;2023-11-19T08:40:50;32.53;;;5.32;;
3653;SDS011;70277;54.302;10.064;2023-11-19T08:43:18;36.63;;;5.07;;
3653;SDS011;70277;54.302;10.064;2023-11-19T08:45:44;41.75;;;5.95;;
3653;SDS011;70277;54.302;10.064;2023-11-19T08:48:11;40.92;;;5.07;;
3653;SDS011;70277;54.302;10.064;2023-11-19T08:50:37;44.30;;;6.72;;
3653;SDS011;70277;54.302;10.064;2023-11-19T08:53:04;39.63;;;5.38;;
3653;SDS011;70277;54.302;10.064;2023-11-19T08:55:33;37.85;;;5.18;;
3653;SDS011;70277;54.302;10.064;2023-11-19T08:57:59;42.70;;;5.65;;
3653;SDS011;70277;54.302;10.064;2023-11-19T09:00:26;39.55;;;5.10;;
3653;SDS011;70277;54.302;10.064;2023-11-19T09:02:52;43.38;;;5.20;;
3653;SDS011;70277;54.302;10.064;2023-11-19T09:05:19;34.22;;;4.85;;
3653;SDS011;70277;54.302;10.064;2023-11-19T09:07:46;48.67;;;7.53;;
3653;SDS011;70277;54.302;10.064;2023-11-19T09:10:12;43.88;;;5.72;;
3653;SDS011;70277;54.302;10.064;2023-11-19T09:12:39;37.13;;;5.75;;
3653;SDS011;70277;54.302;10.064;2023-11-19T09:15:05;41.58;;;5.30;;
3653;SDS011;70277;54.302;10.064;2023-11-19T09:17:33;59.78;;;6.25;;
3653;SDS011;70277;54.302;10.064;2023-11-19T09:19:59;50.10;;;6.32;;
3653;SDS011;70277;54.302;10.064;2023-11-19T09:22:26;39.72;;;5.65;;
3653;SDS011;70277;54.302;10.064;2023-11-19T09:24:52;44.08;;;5.45;;
3653;SDS011;70277;54.302;10.064;2023-11-19T09:27:19;47.70;;;5.18;;
3653;SDS011;70277;54.302;10.064;2023-11-19T09:29:46;48.75;;;6.15;;
3653;SDS011;70277;54.302;10.064;2023-11-19T09:32:15;52.85;;;6.72;;
3653;SDS011;70277;54.302;10.064;2023-11-19T09:34:41;54.83;;;5.80;;
3653;SDS011;70277;54.302;10.064;2023-11-19T09:37:08;55.25;;;5.78;;
3653;SDS011;70277;54.302;10.064;2023-11-19T09:39:47;44.58;;;5.13;;
3653;SDS011;70277;54.302;10.064;2023-11-19T09:42:13;40.00;;;5.57;;
3653;SDS011;70277;54.302;10.064;2023-11-19T09:44:40;46.67;;;6.50;;
3653;SDS011;70277;54.302;10.064;2023-11-19T09:47:08;54.17;;;6.07;;
3653;SDS011;70277;54.302;10.064;2023-11-19T09:49:37;40.30;;;4.72;;
3653;SDS011;70277;54.302;10.064;2023-11-19T09:52:04;50.08;;;6.47;;
3653;SDS011;70277;54.302;10.064;2023-11-19T09:54:31;39.92;;;5.40;;
3653;SDS011;70277;54.302;10.064;2023-11-19T09:56:58;50.95;;;7.25;;
3653;SDS011;70277;54.302;10.064;2023-11-19T09:59:29;52.47;;;6.40;;
3653;SDS011;70277;54.302;10.064;2023-11-19T10:01:56;38.25;;;6.25;;
3653;SDS011;70277;54.302;10.064;2023-11-19T10:04:23;41.97;;;5.65;;
3653;SDS011;70277;54.302;10.064;2023-11-19T10:06:50;35.30;;;4.93;;
3653;SDS011;70277;54.302;10.064;2023-11-19T10:09:18;27.58;;;5.20;;
3653;SDS011;70277;54.302;10.064;2023-11-19T10:11:45;29.48;;;4.35;;
3653;SDS011;70277;54.302;10.064;2023-11-19T10:14:12;38.08;;;4.47;;
3653;SDS011;70277;54.302;10.064;2023-11-19T10:16:40;37.65;;;5.40;;
3653;SDS011;70277;54.302;10.064;2023-11-19T10:19:07;37.88;;;5.15;;
3653;SDS011;70277;54.302;10.064;2023-11-19T10:21:34;35.97;;;5.45;;
3653;SDS011;70277;54.302;10.064;2023-11-19T10:24:01;43.45;;;6.22;;
3653;SDS011;70277;54.302;10.064;2023-11-19T10:26:27;44.70;;;5.18;;
3653;SDS011;70277;54.302;10.064;2023-11-19T10:28:55;39.65;;;4.65;;
3653;SDS011;70277;54.302;10.064;2023-11-19T10:31:22;38.80;;;4.65;;
3653;SDS011;70277;54.302;10.064;2023-11-19T10:36:19;39.42;;;4.55;;
3653;SDS011;70277;54.302;10.064;2023-11-19T10:38:53;30.73;;;4.85;;
3653;SDS011;70277;54.302;10.064;2023-11-19T10:41:29;40.78;;;4.85;;
3653;SDS011;70277;54.302;10.064;2023-11-19T10:43:57;40.03;;;5.50;;
3653;SDS011;70277;54.302;10.064;2023-11-19T10:46:35;34.55;;;4.30;;
3653;SDS011;70277;54.302;10.064;2023-11-19T10:49:03;29.15;;;4.00;;
3653;SDS011;70277;54.302;10.064;2023-11-19T10:51:30;36.78;;;4.40;;
3653;SDS011;70277;54.302;10.064;2023-11-19T10:54:00;35.83;;;5.82;;
3653;SDS011;70277;54.302;10.064;2023-11-19T10:56:30;40.08;;;4.30;;
3653;SDS011;70277;54.302;10.064;2023-11-19T10:58:58;38.42;;;4.82;;
3653;SDS011;70277;54.302;10.064;2023-11-19T11:01:27;41.80;;;5.15;;
3653;SDS011;70277;54.302;10.064;2023-11-19T11:04:01;36.88;;;6.55;;
3653;SDS011;70277;54.302;10.064;2023-11-19T11:06:28;37.97;;;5.50;;
3653;SDS011;70277;54.302;10.064;2023-11-19T11:08:56;54.42;;;6.65;;
3653;SDS011;70277;54.302;10.064;2023-11-19T11:11:23;43.65;;;6.07;;
3653;SDS011;70277;54.302;10.064;2023-11-19T11:13:52;46.10;;;6.45;;
3653;SDS011;70277;54.302;10.064;2023-11-19T11:16:21;50.33;;;6.25;;
3653;SDS011;70277;54.302;10.064;2023-11-19T11:18:50;59.33;;;7.43;;
3653;SDS011;70277;54.302;10.064;2023-11-19T11:21:20;43.10;;;5.32;;
3653;SDS011;70277;54.302;10.064;2023-11-19T11:32:29;46.15;;;6.32;;
3653;SDS011;70277;54.302;10.064;2023-11-19T11:37:53;39.83;;;4.93;;
3653;SDS011;70277;54.302;10.064;2023-11-19T11:40:26;38.33;;;5.75;;
3653;SDS011;70277;54.302;10.064;2023-11-19T11:42:53;41.80;;;5.15;;
3653;SDS011;70277;54.302;10.064;2023-11-19T11:45:20;48.05;;;5.65;;
3653;SDS011;70277;54.302;10.064;2023-11-19T11:48:15;49.30;;;5.82;;
3653;SDS011;70277;54.302;10.064;2023-11-19T11:50:50;47.25;;;5.68;;
3653;SDS011;70277;54.302;10.064;2023-11-19T11:53:22;43.35;;;5.82;;
3653;SDS011;70277;54.302;10.064;2023-11-19T11:58:21;43.22;;;5.38;;
3653;SDS011;70277;54.302;10.064;2023-11-19T12:00:52;47.22;;;5.80;;
3653;SDS011;70277;54.302;10.064;2023-11-19T12:03:22;50.50;;;5.75;;
3653;SDS011;70277;54.302;10.064;2023-11-19T12:05:49;48.08;;;6.20;;
3653;SDS011;70277;54.302;10.064;2023-11-19T12:08:20;48.33;;;5.93;;
3653;SDS011;70277;54.302;10.064;2023-11-19T12:10:53;52.25;;;5.50;;
3653;SDS011;70277;54.302;10.064;2023-11-19T12:13:24;40.70;;;5.28;;
3653;SDS011;70277;54.302;10.064;2023-11-19T12:16:12;44.65;;;5.25;;
3653;SDS011;70277;54.302;10.064;2023-11-19T12:18:39;45.60;;;5.72;;
3653;SDS011;70277;54.302;10.064;2023-11-19T12:21:07;48.10;;;5.53;;
3653;SDS011;70277;54.302;10.064;2023-11-19T12:23:43;52.22;;;6.57;;
3653;SDS011;70277;54.302;10.064;2023-11-19T12:26:20;38.35;;;4.97;;
3653;SDS011;70277;54.302;10.064;2023-11-19T12:28:58;46.72;;;5.60;;
3653;SDS011;70277;54.302;10.064;2023-11-19T12:31:25;35.63;;;5.25;;
3653;SDS011;70277;54.302;10.064;2023-11-19T12:33:52;47.10;;;7.38;;
3653;SDS011;70277;54.302;10.064;2023-11-19T12:36:19;37.20;;;4.97;;
3653;SDS011;70277;54.302;10.064;2023-11-19T12:38:46;49.47;;;5.30;;
3653;SDS011;70277;54.302;10.064;2023-11-19T12:41:12;32.00;;;5.68;;
3653;SDS011;70277;54.302;10.064;2023-11-19T12:43:39;36.03;;;5.15;;
3653;SDS011;70277;54.302;10.064;2023-11-19T12:46:22;44.83;;;4.82;;
3653;SDS011;70277;54.302;10.064;2023-11-19T12:48:50;41.03;;;5.85;;
3653;SDS011;70277;54.302;10.064;2023-11-19T12:51:18;53.40;;;6.32;;
3653;SDS011;70277;54.302;10.064;2023-11-19T12:53:48;35.95;;;4.32;;
3653;SDS011;70277;54.302;10.064;2023-11-19T12:56:21;44.28;;;5.47;;
3653;SDS011;70277;54.302;10.064;2023-11-19T12:58:48;34.08;;;4.03;;
3653;SDS011;70277;54.302;10.064;2023-11-19T13:01:17;24.85;;;4.20;;
3653;SDS011;70277;54.302;10.064;2023-11-19T13:03:45;26.88;;;4.20;;
3653;SDS011;70277;54.302;10.064;2023-11-19T13:06:12;36.67;;;4.22;;
3653;SDS011;70277;54.302;10.064;2023-11-19T13:08:43;25.30;;;3.75;;
3653;SDS011;70277;54.302;10.064;2023-11-19T13:11:12;31.23;;;4.28;;
3653;SDS011;70277;54.302;10.064;2023-11-19T13:13:58;38.08;;;4.10;;
3653;SDS011;70277;54.302;10.064;2023-11-19T13:16:26;36.15;;;4.20;;
3653;SDS011;70277;54.302;10.064;2023-11-19T13:18:53;31.35;;;3.78;;
3653;SDS011;70277;54.302;10.064;2023-11-19T13:21:20;29.95;;;4.72;;
3653;SDS011;70277;54.302;10.064;2023-11-19T13:23:46;31.20;;;5.00;;
3653;SDS011;70277;54.302;10.064;2023-11-19T13:26:13;29.65;;;4.35;;
3653;SDS011;70277;54.302;10.064;2023-11-19T13:28:39;22.80;;;3.00;;
3653;SDS011;70277;54.302;10.064;2023-11-19T13:31:06;26.00;;;3.63;;
3653;SDS011;70277;54.302;10.064;2023-11-19T13:33:32;26.25;;;3.55;;
3653;SDS011;70277;54.302;10.064;2023-11-19T13:36:00;40.13;;;4.25;;
3653;SDS011;70277;54.302;10.064;2023-11-19T13:38:32;30.02;;;5.40;;
3653;SDS011;70277;54.302;10.064;2023-11-19T13:40:59;27.58;;;4.10;;
3653;SDS011;70277;54.302;10.064;2023-11-19T13:43:26;38.53;;;4.88;;
3653;SDS011;70277;54.302;10.064;2023-11-19T13:45:54;34.00;;;4.30;;
3653;SDS011;70277;54.302;10.064;2023-11-19T13:48:21;38.78;;;4.38;;
3653;SDS011;70277;54.302;10.064;2023-11-19T13:50:48;43.67;;;5.30;;
3653;SDS011;70277;54.302;10.064;2023-11-19T13:53:15;38.13;;;4.68;;
3653;SDS011;70277;54.302;10.064;2023-11-19T13:55:41;29.13;;;5.07;;
3653;SDS011;70277;54.302;10.064;2023-11-19T13:58:09;42.40;;;5.38;;
3653;SDS011;70277;54.302;10.064;2023-11-19T14:00:36;39.42;;;4.97;;
3653;SDS011;70277;54.302;10.064;2023-11-19T14:03:04;42.63;;;5.45;;
3653;SDS011;70277;54.302;10.064;2023-11-19T14:05:31;29.77;;;4.22;;
3653;SDS011;70277;54.302;10.064;2023-11-19T14:08:00;42.88;;;5.35;;
3653;SDS011;70277;54.302;10.064;2023-11-19T14:10:29;36.63;;;4.93;;
3653;SDS011;70277;54.302;10.064;2023-11-19T14:12:55;39.15;;;4.97;;
3653;SDS011;70277;54.302;10.064;2023-11-19T14:15:22;48.80;;;6.03;;
3653;SDS011;70277;54.302;10.064;2023-11-19T14:17:48;44.85;;;5.15;;
3653;SDS011;70277;54.302;10.064;2023-11-19T14:20:15;38.58;;;4.47;;
3653;SDS011;70277;54.302;10.064;2023-11-19T14:22:43;36.88;;;5.28;;
3653;SDS011;70277;54.302;10.064;2023-11-19T14:25:11;43.70;;;5.13;;
3653;SDS011;70277;54.302;10.064;2023-11-19T14:27:38;39.55;;;5.40;;
3653;SDS011;70277;54.302;10.064;2023-11-19T14:30:06;44.85;;;6.18;;
3653;SDS011;70277;54.302;10.064;2023-11-19T14:32:38;39.50;;;6.03;;
3653;SDS011;70277;54.302;10.064;2023-11-19T14:35:06;42.38;;;4.95;;
3653;SDS011;70277;54.302;10.064;2023-11-19T14:37:33;38.20;;;5.13;;
3653;SDS011;70277;54.302;10.064;2023-11-19T14:40:00;46.42;;;5.47;;
3653;SDS011;70277;54.302;10.064;2023-11-19T14:42:28;34.55;;;4.75;;
3653;SDS011;70277;54.302;10.064;2023-11-19T14:44:54;37.05;;;4.82;;
3653;SDS011;70277;54.302;10.064;2023-11-19T14:47:21;31.23;;;4.15;;
3653;SDS011;70277;54.302;10.064;2023-11-19T14:49:48;34.90;;;4.75;;
3653;SDS011;70277;54.302;10.064;2023-11-19T14:52:14;40.53;;;5.40;;
3653;SDS011;70277;54.302;10.064;2023-11-19T14:54:43;33.28;;;3.97;;
3653;SDS011;70277;54.302;10.064;2023-11-19T14:57:10;35.80;;;4.07;;
3653;SDS011;70277;54.302;10.064;2023-11-19T14:59:37;36.10;;;3.78;;
3653;SDS011;70277;54.302;10.064;2023-11-19T15:02:03;37.35;;;5.25;;
3653;SDS011;70277;54.302;10.064;2023-11-19T15:04:30;24.60;;;4.80;;